Terminal Aerodrome Forecast
Issued by NWS

Home | Current Version | Previous Version | Text Only | Print | Product List | Glossary On
Versions: 1 2 3 4 5 6 7 8 9 10 11 12 13 14 15 16 17 18
748
FTUS43 KTOP 231722
TAFFOE
TAF
KFOE 231722Z 2318/2418 33022G30KT P6SM SCT150
     FM240000 31014KT P6SM FEW150
     FM240300 31010KT P6SM FEW150 WS010/32040KT
     FM241300 32018G27KT P6SM FEW150=

USA.gov is the U.S. government's official web portal to all federal, state and local government web resources and services.